createdAt,value
2022-07-30T00:01:34.390Z,10.50
2022-07-30T00:04:02.975Z,12.43
2022-07-30T00:06:29.738Z,15.10
2022-07-30T00:08:56.421Z,18.83
2022-07-30T00:11:27.479Z,23.90
2022-07-30T00:13:54.700Z,13.40
2022-07-30T00:16:21.669Z,15.70
2022-07-30T00:18:48.390Z,13.33
2022-07-30T00:21:30.319Z,17.10
2022-07-30T00:24:02.599Z,12.13
2022-07-30T00:26:30.310Z,13.37
2022-07-30T00:28:56.977Z,14.67
2022-07-30T00:31:23.611Z,16.63
2022-07-30T00:33:50.258Z,17.27
2022-07-30T00:36:17.044Z,18.53
2022-07-30T00:38:43.680Z,18.63
2022-07-30T00:41:10.318Z,14.13
2022-07-30T00:43:36.980Z,13.80
2022-07-30T00:46:06.681Z,22.90
2022-07-30T00:48:33.438Z,19.07
2022-07-30T00:51:00.541Z,13.80
2022-07-30T00:53:27.856Z,14.70
2022-07-30T00:55:54.539Z,10.80
2022-07-30T00:58:21.153Z,13.60
2022-07-30T01:00:49.000Z,14.33
2022-07-30T01:03:15.767Z,14.80
2022-07-30T01:05:42.421Z,20.40
2022-07-30T01:08:09.128Z,18.53
2022-07-30T01:10:35.778Z,15.23
2022-07-30T01:13:03.796Z,17.20
2022-07-30T01:15:30.762Z,20.63
2022-07-30T01:18:00.058Z,18.20
2022-07-30T01:20:50.048Z,21.07
2022-07-30T01:23:25.121Z,17.57
2022-07-30T01:25:57.102Z,18.03
2022-07-30T01:28:26.260Z,12.23
2022-07-30T01:30:54.070Z,18.03
2022-07-30T01:33:21.909Z,16.43
2022-07-30T01:35:48.865Z,17.83
2022-07-30T01:38:17.180Z,17.57
2022-07-30T01:40:45.053Z,15.77
2022-07-30T01:43:12.926Z,20.93
2022-07-30T01:45:42.338Z,20.97
2022-07-30T01:48:13.351Z,17.20
2022-07-30T01:50:42.974Z,16.30
2022-07-30T01:53:20.961Z,22.07
2022-07-30T01:55:48.170Z,15.70
2022-07-30T01:58:18.256Z,25.70
2022-07-30T02:00:46.448Z,17.43
2022-07-30T02:03:13.152Z,16.07
2022-07-30T02:05:41.247Z,16.67
2022-07-30T02:08:20.737Z,17.87
2022-07-30T02:10:57.749Z,25.60
2022-07-30T02:13:28.524Z,17.47
2022-07-30T02:15:55.221Z,19.43
2022-07-30T02:18:31.561Z,27.87
2022-07-30T02:21:07.285Z,22.50
2022-07-30T02:23:36.463Z,18.03
2022-07-30T02:26:04.125Z,29.60
2022-07-30T02:28:34.011Z,16.10
2022-07-30T02:31:01.726Z,18.63
2022-07-30T02:33:33.317Z,16.43
2022-07-30T02:36:03.806Z,17.80
2022-07-30T02:38:39.283Z,23.00
2022-07-30T02:41:07.522Z,23.70
2022-07-30T02:43:37.726Z,26.20
2022-07-30T02:46:09.461Z,16.73
2022-07-30T02:49:03.399Z,22.27
2022-07-30T02:51:30.957Z,29.27
2022-07-30T02:53:58.626Z,23.40
2022-07-30T02:56:26.360Z,25.73
2022-07-30T02:58:53.330Z,25.00
2022-07-30T03:01:21.759Z,20.00
2022-07-30T03:03:48.459Z,27.37
2022-07-30T03:06:15.719Z,29.60
2022-07-30T03:08:43.730Z,27.93
2022-07-30T03:11:13.983Z,34.10
2022-07-30T03:13:40.829Z,27.80
2022-07-30T03:16:08.963Z,31.57
2022-07-30T03:18:37.460Z,27.10
2022-07-30T03:21:06.898Z,26.17
2022-07-30T03:23:36.604Z,28.90
2022-07-30T03:26:05.138Z,23.07
2022-07-30T03:28:33.061Z,35.83
2022-07-30T03:31:04.886Z,27.97
2022-07-30T03:33:38.745Z,27.53
2022-07-30T03:36:06.959Z,30.20
2022-07-30T03:38:34.353Z,31.63
2022-07-30T03:41:05.148Z,36.97
2022-07-30T03:43:34.198Z,26.73
2022-07-30T03:46:07.808Z,29.77
2022-07-30T03:48:38.602Z,33.90
2022-07-30T03:51:07.043Z,43.87
2022-07-30T03:53:34.509Z,39.97
2022-07-30T03:56:36.693Z,23.07
2022-07-30T03:59:26.770Z,36.37
2022-07-30T04:01:53.965Z,31.63
2022-07-30T04:04:43.206Z,37.00
2022-07-30T04:07:10.079Z,33.60
2022-07-30T04:09:36.872Z,26.07
2022-07-30T04:12:20.420Z,29.77
2022-07-30T04:14:47.285Z,26.30
2022-07-30T04:17:34.358Z,39.83
2022-07-30T04:20:17.937Z,32.77
2022-07-30T04:22:47.509Z,26.23
2022-07-30T04:25:20.437Z,34.30
2022-07-30T04:28:01.928Z,37.97
2022-07-30T04:30:34.867Z,36.53
2022-07-30T04:33:03.416Z,25.07
2022-07-30T04:35:52.400Z,37.87
2022-07-30T04:38:31.755Z,31.87
2022-07-30T04:40:58.564Z,34.13
2022-07-30T04:43:28.552Z,43.70
2022-07-30T04:45:55.335Z,29.10
2022-07-30T04:48:22.189Z,43.10
2022-07-30T04:50:51.139Z,42.37
2022-07-30T04:53:19.847Z,48.93
2022-07-30T04:55:55.613Z,52.70
2022-07-30T04:58:26.034Z,55.70
2022-07-30T05:00:54.331Z,54.17
2022-07-30T05:03:26.144Z,64.47
2022-07-30T05:05:57.266Z,55.43
2022-07-30T05:08:26.228Z,78.90
2022-07-30T05:10:53.396Z,81.63
2022-07-30T05:13:20.472Z,96.37
2022-07-30T05:15:49.460Z,78.27
2022-07-30T05:18:18.252Z,78.73
2022-07-30T05:20:46.728Z,71.93
2022-07-30T05:23:20.278Z,72.20
2022-07-30T05:26:09.843Z,79.13
2022-07-30T05:28:41.824Z,68.73
2022-07-30T05:31:13.036Z,59.20
2022-07-30T05:33:42.520Z,62.30
2022-07-30T05:36:12.347Z,70.00
2022-07-30T05:38:42.612Z,66.23
2022-07-30T05:41:32.831Z,86.87
2022-07-30T05:44:23.875Z,70.87
2022-07-30T05:46:52.073Z,81.47
2022-07-30T05:49:19.238Z,74.60
2022-07-30T05:51:46.212Z,77.73
2022-07-30T05:54:12.917Z,59.93
2022-07-30T05:57:00.060Z,68.50
2022-07-30T05:59:32.266Z,73.53
2022-07-30T06:02:03.422Z,66.20
2022-07-30T06:04:48.926Z,66.43
2022-07-30T06:07:16.709Z,74.37
2022-07-30T06:09:43.450Z,69.10
2022-07-30T06:12:10.825Z,56.00
2022-07-30T06:14:37.743Z,61.33
2022-07-30T06:17:06.213Z,60.07
2022-07-30T06:19:53.356Z,73.87
2022-07-30T06:22:25.986Z,72.40
2022-07-30T06:24:53.748Z,69.00
2022-07-30T06:27:26.012Z,48.77
2022-07-30T06:29:53.458Z,59.40
2022-07-30T06:32:20.637Z,59.73
2022-07-30T06:34:48.020Z,82.87
2022-07-30T06:37:14.786Z,59.67
2022-07-30T06:39:56.367Z,60.40
2022-07-30T06:43:04.279Z,50.20
2022-07-30T06:45:56.481Z,47.07
2022-07-30T06:48:25.201Z,54.97
2022-07-30T06:50:53.008Z,56.53
2022-07-30T06:53:20.018Z,55.50
2022-07-30T06:56:25.117Z,66.73
2022-07-30T06:58:56.768Z,52.00
2022-07-30T07:01:42.213Z,56.10
2022-07-30T07:04:09.152Z,52.63
2022-07-30T07:06:38.760Z,46.97
2022-07-30T07:09:06.448Z,37.83
2022-07-30T07:11:59.286Z,44.93
2022-07-30T07:14:27.279Z,42.80
2022-07-30T07:16:53.969Z,36.37
2022-07-30T07:20:00.773Z,57.03
2022-07-30T07:22:26.385Z,42.87
2022-07-30T07:24:53.393Z,39.27
2022-07-30T07:27:24.898Z,50.13
2022-07-30T07:30:04.976Z,51.90
2022-07-30T07:32:34.542Z,51.10
2022-07-30T07:35:01.433Z,41.90
2022-07-30T07:37:28.362Z,45.40
2022-07-30T07:39:55.521Z,43.00
2022-07-30T07:42:22.224Z,45.07
2022-07-30T07:44:50.048Z,47.73
2022-07-30T07:47:17.362Z,48.40
2022-07-30T07:49:55.520Z,39.87
2022-07-30T07:52:22.621Z,51.87
2022-07-30T07:54:49.530Z,42.07
2022-07-30T07:57:17.887Z,52.50
2022-07-30T07:59:46.915Z,37.77
2022-07-30T08:02:21.240Z,52.53
2022-07-30T08:04:57.570Z,44.93
2022-07-30T08:07:45.051Z,32.47
2022-07-30T08:10:30.492Z,31.23
2022-07-30T08:12:57.229Z,31.67
2022-07-30T08:15:42.332Z,28.27
2022-07-30T08:18:35.669Z,30.97
2022-07-30T08:21:18.618Z,28.93
2022-07-30T08:23:45.420Z,26.70
2022-07-30T08:26:12.190Z,30.30
2022-07-30T08:28:38.967Z,29.23
2022-07-30T08:31:08.063Z,30.03
2022-07-30T08:33:37.571Z,35.13
2022-07-30T08:36:09.800Z,36.13
2022-07-30T08:38:38.409Z,28.10
2022-07-30T08:41:05.543Z,28.10
2022-07-30T08:43:33.193Z,28.43
2022-07-30T08:46:00.771Z,29.23
2022-07-30T08:48:44.779Z,19.80
2022-07-30T08:51:15.245Z,16.67
2022-07-30T08:54:04.979Z,27.67
2022-07-30T08:56:32.692Z,22.37
2022-07-30T08:59:00.215Z,19.47
2022-07-30T09:01:27.140Z,22.67
2022-07-30T09:03:56.369Z,27.87
2022-07-30T09:06:25.398Z,18.80
2022-07-30T09:08:52.009Z,17.27
2022-07-30T09:11:18.871Z,22.13
2022-07-30T09:13:45.608Z,15.20
2022-07-30T09:16:24.149Z,15.13
2022-07-30T09:18:53.345Z,18.87
2022-07-30T09:21:24.737Z,23.73
2022-07-30T09:24:11.877Z,18.57
2022-07-30T09:27:09.430Z,14.17
2022-07-30T09:29:56.718Z,21.20
2022-07-30T09:32:53.796Z,24.93
2022-07-30T09:35:40.183Z,13.77
2022-07-30T09:38:10.367Z,16.23
2022-07-30T09:40:57.256Z,12.07
2022-07-30T09:43:41.406Z,18.53
2022-07-30T09:46:12.218Z,19.23
2022-07-30T09:48:39.838Z,9.97
2022-07-30T09:51:15.917Z,13.87
2022-07-30T09:53:56.366Z,18.57
2022-07-30T09:56:27.269Z,11.47
2022-07-30T09:58:58.556Z,16.30
2022-07-30T10:01:25.465Z,16.27
2022-07-30T10:04:48.272Z,15.57
2022-07-30T10:07:25.298Z,11.27
2022-07-30T10:10:00.044Z,11.00
2022-07-30T10:12:28.294Z,11.07
2022-07-30T10:14:58.161Z,12.23
2022-07-30T10:17:25.355Z,10.53
2022-07-30T10:20:30.941Z,6.10
2022-07-30T10:23:39.780Z,14.90
2022-07-30T10:26:35.216Z,9.97
2022-07-30T10:29:20.974Z,7.27
2022-07-30T10:32:11.697Z,6.20
2022-07-30T10:34:42.364Z,9.17
2022-07-30T10:37:12.746Z,7.17
2022-07-30T10:39:44.810Z,9.33
2022-07-30T10:42:28.528Z,9.37
2022-07-30T10:45:17.168Z,8.67
2022-07-30T10:47:49.078Z,5.73
2022-07-30T10:50:17.839Z,6.47
2022-07-30T10:52:50.597Z,5.17
2022-07-30T10:55:32.907Z,8.60
2022-07-30T10:58:10.087Z,9.00
2022-07-30T11:00:57.127Z,6.63
2022-07-30T11:03:40.423Z,7.60
2022-07-30T11:06:16.621Z,4.50
2022-07-30T11:08:51.695Z,9.70
2022-07-30T11:12:01.625Z,5.70
2022-07-30T11:14:45.365Z,8.87
2022-07-30T11:17:16.304Z,7.40
2022-07-30T11:20:02.271Z,8.47
2022-07-30T11:22:42.097Z,6.77
2022-07-30T11:25:13.101Z,11.13
2022-07-30T11:27:41.956Z,7.60
2022-07-30T11:30:21.163Z,6.20
2022-07-30T11:32:56.194Z,9.67
2022-07-30T11:35:32.384Z,7.60
2022-07-30T11:38:19.750Z,4.20
2022-07-30T11:40:50.036Z,6.10
2022-07-30T11:43:17.849Z,4.80
2022-07-30T11:46:10.858Z,3.47
2022-07-30T11:48:40.794Z,6.63
2022-07-30T11:51:08.965Z,4.80
2022-07-30T11:53:36.079Z,7.40
2022-07-30T11:56:03.717Z,7.10
2022-07-30T11:58:35.602Z,6.00
2022-07-30T12:01:09.204Z,3.80
2022-07-30T12:03:39.910Z,4.90
2022-07-30T12:06:20.672Z,4.50
2022-07-30T12:08:48.820Z,2.43
2022-07-30T12:11:15.846Z,7.40
2022-07-30T12:13:46.337Z,6.20
2022-07-30T12:16:17.408Z,5.90
2022-07-30T12:18:45.058Z,4.70
2022-07-30T12:21:12.941Z,6.20
2022-07-30T12:23:43.331Z,5.20
2022-07-30T12:26:27.237Z,6.00
2022-07-30T12:28:55.299Z,3.40
2022-07-30T12:31:22.256Z,4.13
2022-07-30T12:33:49.144Z,5.27
2022-07-30T12:36:26.758Z,7.80
2022-07-30T12:38:54.667Z,2.27
2022-07-30T12:41:22.782Z,4.17
2022-07-30T12:43:51.488Z,6.10
2022-07-30T12:46:27.882Z,2.50
2022-07-30T12:49:10.316Z,3.50
2022-07-30T12:51:50.672Z,5.80
2022-07-30T12:54:19.504Z,2.10
2022-07-30T12:57:00.158Z,5.80
2022-07-30T12:59:27.642Z,7.73
2022-07-30T13:01:55.952Z,4.47
2022-07-30T13:04:23.108Z,6.40
2022-07-30T13:07:10.567Z,5.80
2022-07-30T13:09:38.002Z,7.57
2022-07-30T13:12:05.732Z,3.47
2022-07-30T13:14:32.759Z,1.83
2022-07-30T13:16:59.757Z,7.70
2022-07-30T13:19:28.114Z,2.20
2022-07-30T13:21:54.913Z,7.80
2022-07-30T13:24:21.992Z,4.00
2022-07-30T13:26:50.803Z,6.10
2022-07-30T13:29:17.765Z,6.20
2022-07-30T13:31:44.489Z,2.83
2022-07-30T13:34:12.176Z,1.93
2022-07-30T13:36:39.357Z,3.87
2022-07-30T13:39:06.303Z,5.33
2022-07-30T13:41:33.840Z,3.80
2022-07-30T13:44:00.705Z,3.13
2022-07-30T13:46:27.507Z,2.50
2022-07-30T13:48:55.013Z,2.33
2022-07-30T13:51:22.028Z,2.60
2022-07-30T13:53:48.847Z,1.50
2022-07-30T13:56:15.711Z,3.63
2022-07-30T13:58:42.846Z,5.67
2022-07-30T14:01:18.077Z,8.30
2022-07-30T14:03:50.561Z,1.93
2022-07-30T14:06:18.436Z,3.20
2022-07-30T14:08:45.432Z,1.77
2022-07-30T14:11:12.641Z,1.80
2022-07-30T14:13:39.674Z,4.87
2022-07-30T14:16:22.665Z,3.37
2022-07-30T14:18:49.980Z,7.70
2022-07-30T14:21:16.930Z,1.77
2022-07-30T14:23:43.877Z,4.97
2022-07-30T14:26:10.737Z,5.90
2022-07-30T14:28:37.636Z,1.70
2022-07-30T14:31:13.853Z,3.30
2022-07-30T14:33:41.021Z,5.40
2022-07-30T14:36:07.917Z,2.70
2022-07-30T14:38:34.673Z,5.10
2022-07-30T14:41:07.254Z,4.60
2022-07-30T14:43:34.073Z,6.07
2022-07-30T14:46:04.612Z,2.20
2022-07-30T14:48:31.368Z,5.37
2022-07-30T14:51:14.307Z,3.33
2022-07-30T14:53:42.970Z,9.60
2022-07-30T14:56:14.090Z,3.07
2022-07-30T14:58:41.158Z,2.50
2022-07-30T15:01:15.686Z,7.30
2022-07-30T15:03:44.525Z,5.70
2022-07-30T15:06:12.805Z,2.07
2022-07-30T15:08:39.623Z,2.60
2022-07-30T15:11:07.967Z,1.60
2022-07-30T15:13:37.135Z,3.53
2022-07-30T15:16:07.934Z,3.37
2022-07-30T15:18:35.073Z,2.00
2022-07-30T15:21:05.188Z,2.30
2022-07-30T15:23:34.846Z,8.00
2022-07-30T15:26:01.562Z,3.67
2022-07-30T15:28:28.823Z,6.27
2022-07-30T15:30:58.608Z,4.20
2022-07-30T15:33:25.671Z,3.83
2022-07-30T15:35:52.889Z,5.70
2022-07-30T15:38:19.660Z,2.70
2022-07-30T15:40:46.594Z,1.83
2022-07-30T15:43:13.376Z,4.57
2022-07-30T15:45:55.373Z,5.43
2022-07-30T15:48:26.875Z,6.50
2022-07-30T15:50:59.778Z,6.33
2022-07-30T15:53:27.973Z,9.47
2022-07-30T15:55:54.714Z,1.87
2022-07-30T15:58:21.451Z,12.13
2022-07-30T16:00:48.440Z,2.00
2022-07-30T16:03:15.283Z,5.33
2022-07-30T16:05:51.316Z,2.33
2022-07-30T16:08:20.624Z,4.77
2022-07-30T16:10:47.990Z,12.17
2022-07-30T16:13:14.947Z,10.43
2022-07-30T16:15:41.979Z,6.30
2022-07-30T16:18:09.006Z,3.93
2022-07-30T16:20:35.838Z,4.00
2022-07-30T16:23:02.839Z,8.87
2022-07-30T16:25:29.850Z,7.63
2022-07-30T16:27:57.847Z,3.70
2022-07-30T16:30:27.448Z,6.13
2022-07-30T16:32:56.484Z,2.27
2022-07-30T16:35:23.649Z,3.33
2022-07-30T16:37:51.183Z,3.70
2022-07-30T16:40:18.180Z,2.73
2022-07-30T16:42:45.130Z,5.17
2022-07-30T16:45:12.095Z,3.37
2022-07-30T16:47:39.050Z,3.00
2022-07-30T16:50:06.283Z,5.83
2022-07-30T16:52:33.143Z,8.53
2022-07-30T16:54:59.880Z,3.17
2022-07-30T16:57:26.615Z,3.83
2022-07-30T16:59:53.367Z,3.10
2022-07-30T17:02:19.982Z,4.07
2022-07-30T17:04:46.735Z,6.10
2022-07-30T17:07:13.687Z,5.30
2022-07-30T17:09:40.560Z,3.20
2022-07-30T17:12:11.952Z,6.43
2022-07-30T17:14:39.837Z,10.13
2022-07-30T17:17:09.619Z,6.77
2022-07-30T17:19:39.058Z,4.13
2022-07-30T17:22:06.309Z,4.00
2022-07-30T17:24:33.104Z,17.50
2022-07-30T17:27:00.015Z,5.53
2022-07-30T17:29:26.825Z,7.60
2022-07-30T17:31:53.627Z,8.23
2022-07-30T17:34:22.584Z,5.90
2022-07-30T17:36:52.574Z,4.33
2022-07-30T17:40:04.291Z,6.87
2022-07-30T17:42:09.339Z,4.53
2022-07-30T17:44:36.706Z,4.80
2022-07-30T17:47:03.541Z,4.03
2022-07-30T17:49:30.464Z,7.83
2022-07-30T17:51:57.354Z,9.10
2022-07-30T17:54:24.437Z,10.63
2022-07-30T17:56:51.139Z,6.27
2022-07-30T17:59:17.752Z,3.50
2022-07-30T18:01:44.496Z,7.67
2022-07-30T18:04:11.354Z,3.47
2022-07-30T18:06:38.195Z,12.23
2022-07-30T18:09:05.345Z,5.20
2022-07-30T18:11:32.171Z,3.30
2022-07-30T18:13:58.966Z,7.60
2022-07-30T18:16:26.380Z,6.70
2022-07-30T18:18:53.243Z,6.30
2022-07-30T18:21:19.994Z,5.80
2022-07-30T18:24:11.886Z,3.50
2022-07-30T18:26:40.193Z,2.90
2022-07-30T18:29:10.928Z,3.30
2022-07-30T18:31:40.282Z,5.53
2022-07-30T18:34:07.869Z,6.27
2022-07-30T18:36:34.627Z,17.27
2022-07-30T18:39:01.269Z,6.53
2022-07-30T18:41:28.008Z,58.33
2022-07-30T18:43:54.763Z,3.57
2022-07-30T18:46:21.612Z,5.13
2022-07-30T18:48:48.786Z,4.80
2022-07-30T18:51:15.700Z,13.40
2022-07-30T18:53:42.661Z,3.70
2022-07-30T18:56:09.505Z,6.27
2022-07-30T18:58:37.976Z,5.40
2022-07-30T19:01:05.527Z,4.00
2022-07-30T19:03:32.446Z,4.43
2022-07-30T19:05:59.148Z,13.20
2022-07-30T19:08:25.875Z,4.90
2022-07-30T19:10:52.729Z,5.87
2022-07-30T19:13:23.560Z,7.03
2022-07-30T19:15:50.746Z,6.40
2022-07-30T19:18:17.667Z,7.33
2022-07-30T19:20:44.509Z,6.43
2022-07-30T19:23:12.356Z,9.70
2022-07-30T19:25:39.329Z,4.60
2022-07-30T19:28:06.231Z,3.73
2022-07-30T19:30:33.592Z,2.90
2022-07-30T19:33:12.525Z,3.00
2022-07-30T19:35:41.841Z,3.43
2022-07-30T19:38:09.913Z,5.40
2022-07-30T19:40:42.272Z,5.63
2022-07-30T19:43:10.185Z,4.83
2022-07-30T19:45:47.479Z,9.10
2022-07-30T19:48:29.021Z,3.00
2022-07-30T19:50:59.073Z,6.57
2022-07-30T19:53:26.231Z,6.10
2022-07-30T19:55:54.832Z,4.30
2022-07-30T19:58:22.137Z,4.37
2022-07-30T20:00:51.816Z,4.23
2022-07-30T20:03:25.568Z,6.60
2022-07-30T20:08:39.982Z,18.83
2022-07-30T20:11:08.313Z,6.80
2022-07-30T20:13:44.610Z,19.33
2022-07-30T20:16:14.931Z,3.47
2022-07-30T20:18:42.845Z,8.40
2022-07-30T20:21:14.589Z,10.50
2022-07-30T20:23:44.672Z,5.50
2022-07-30T20:26:14.960Z,11.47
2022-07-30T20:28:52.326Z,12.80
2022-07-30T20:31:19.849Z,15.00
2022-07-30T20:33:50.188Z,24.77
2022-07-30T20:36:18.386Z,17.10
2022-07-30T20:38:47.203Z,14.13
2022-07-30T20:41:14.656Z,17.93
2022-07-30T20:43:45.881Z,11.30
2022-07-30T20:46:18.162Z,10.90
2022-07-30T20:48:46.004Z,9.03
2022-07-30T20:51:12.914Z,12.07
2022-07-30T20:53:45.396Z,12.73
2022-07-30T20:56:29.148Z,13.63
2022-07-30T20:58:56.857Z,11.30
2022-07-30T21:01:23.626Z,6.30
2022-07-30T21:03:50.513Z,10.17
2022-07-30T21:06:17.573Z,10.10
2022-07-30T21:08:44.368Z,4.93
2022-07-30T21:11:12.643Z,20.80
2022-07-30T21:13:39.800Z,8.47
2022-07-30T21:16:15.649Z,7.20
2022-07-30T21:18:49.955Z,15.30
2022-07-30T21:21:17.876Z,8.83
2022-07-30T21:23:56.093Z,15.33
2022-07-30T21:26:23.381Z,19.63
2022-07-30T21:28:50.625Z,12.03
2022-07-30T21:31:19.157Z,9.00
2022-07-30T21:34:05.881Z,13.00
2022-07-30T21:36:32.873Z,14.47
2022-07-30T21:39:00.525Z,7.17
2022-07-30T21:41:40.483Z,7.07
2022-07-30T21:44:07.894Z,12.63
2022-07-30T21:46:38.125Z,5.70
2022-07-30T21:49:07.331Z,13.83
2022-07-30T21:51:34.601Z,8.23
2022-07-30T21:54:01.609Z,10.57
2022-07-30T21:56:33.712Z,9.00
2022-07-30T21:59:00.597Z,5.70
2022-07-30T22:01:27.482Z,7.83
2022-07-30T22:06:42.176Z,10.87
2022-07-30T22:09:19.912Z,9.90
2022-07-30T22:11:56.768Z,10.77
2022-07-30T22:14:27.660Z,12.60
2022-07-30T22:16:55.449Z,16.93
2022-07-30T22:19:22.115Z,10.43
2022-07-30T22:21:49.235Z,12.00
2022-07-30T22:24:29.216Z,11.70
2022-07-30T22:26:57.867Z,8.00
2022-07-30T22:29:34.463Z,8.97
2022-07-30T22:32:02.109Z,8.10
2022-07-30T22:34:29.018Z,13.90
2022-07-30T22:36:55.741Z,12.10
2022-07-30T22:39:32.116Z,13.70
2022-07-30T22:42:12.622Z,10.10
2022-07-30T22:44:39.605Z,22.73
2022-07-30T22:47:18.629Z,16.77
2022-07-30T22:49:50.395Z,8.13
2022-07-30T22:52:24.988Z,9.77
2022-07-30T22:54:52.208Z,15.17
2022-07-30T22:57:22.814Z,8.80
2022-07-30T22:59:58.071Z,11.37
2022-07-30T23:02:27.789Z,12.67
2022-07-30T23:04:54.763Z,13.93
2022-07-30T23:07:23.369Z,10.23
2022-07-30T23:09:51.932Z,15.27
2022-07-30T23:12:16.795Z,13.10
2022-07-30T23:12:20.110Z,9.30
2022-07-30T23:12:32.938Z,16.20
2022-07-30T23:14:47.618Z,16.33
2022-07-30T23:17:14.480Z,11.27
2022-07-30T23:19:41.187Z,19.53
2022-07-30T23:22:07.894Z,10.70
2022-07-30T23:24:34.519Z,9.23
2022-07-30T23:27:02.193Z,12.23
2022-07-30T23:29:29.078Z,9.67
2022-07-30T23:31:55.820Z,10.00
2022-07-30T23:34:22.456Z,7.97
2022-07-30T23:36:49.111Z,10.83
2022-07-30T23:39:15.792Z,10.10
2022-07-30T23:41:43.688Z,6.60
2022-07-30T23:44:10.330Z,7.23
2022-07-30T23:46:37.159Z,14.00
2022-07-30T23:49:04.940Z,8.27
2022-07-30T23:51:33.439Z,16.53
2022-07-30T23:54:01.055Z,9.60
2022-07-30T23:56:27.742Z,6.10
2022-07-30T23:58:54.717Z,13.93
